Hiawassee, GA (30546)

4:29 PM EDT on October 01, 2016 (GMT -0400)
Ramey Mountain | | Change Station

Elev 2140 ft 34.97 °N, 83.81 °W | Updated 13 seconds ago

Scattered Clouds
Scattered Clouds
73.7 °F
Feels Like 77 °F
N
1.0
Wind Variable Wind from WNW

Today
High -- | Low -- °F
--% Chance of Precip.
Yesterday
High -- | Low -- °F
Precip. -- in
Pressure 30.06 in
Visibility 10.0 miles
Clouds Scattered Clouds 6000 ft
Heat Index 77 °F
Dew Point 52 °F
Humidity 46%
Rainfall 0.00 in
Snow Depth Not available.
7:29 AM 7:18 PM
New Moon, 1% visible
METAR KRHP 012005Z AUTO 28005KT 10SM SCT060 21/11 A3006 RMK AO2 T02130110
Pressure 30.06 in
Visibility 10.0 miles
Clouds Scattered Clouds 6000 ft
Heat Index 77 °F
Dew Point 52 °F
Humidity 46%
Rainfall 0.00 in
Snow Depth Not available.
7:29 AM 7:18 PM
New Moon, 1% visible
METAR KRHP 012005Z AUTO 28005KT 10SM SCT060 21/11 A3006 RMK AO2 T02130110

10-Day Weather Forecast

Almanac

Astronomy

Oct. 01, 2016 Rise Set
Actual Time
Civil Twilight
Nautical Twilight
Astronomical Twilight
Moon
Length of Visible Light
Length of Day
Tomorrow will be .
, % of the Moon is Illuminated

Today's Extremes

State Highs State Lows

Community

WunderPhotos

Upload Photos

1,943,013 photos uploaded!

WunderBlog® & News

Nearby

Air Quality

  Air Quality AQ Index Pollutant
Not available.

Snow Depth

Station Depth Elevation

Earthquake Activity

City Distance Mag. Time & Date
Minimum magnitude displayed is 2.5.

Coastal Water Temperatures

Place Temperature

Stations

Nearby Weather Stations

Station Location Temp. Windchill Dew Point Humidity Wind Precip. Elev Updated Type
                   

Watches & Warnings

There are currently no watches in effect.